createdAt,value
2023-03-26T00:01:36.861Z,3.50
2023-03-26T00:04:06.758Z,3.20
2023-03-26T00:06:39.997Z,2.70
2023-03-26T00:09:10.698Z,3.30
2023-03-26T00:11:38.622Z,2.90
2023-03-26T00:14:06.522Z,3.00
2023-03-26T00:16:34.423Z,3.10
2023-03-26T00:19:02.710Z,3.20
2023-03-26T00:21:30.747Z,3.60
2023-03-26T00:24:04.430Z,3.00
2023-03-26T00:26:34.073Z,2.70
2023-03-26T00:29:03.702Z,3.40
2023-03-26T00:31:31.845Z,2.80
2023-03-26T00:34:03.322Z,2.40
2023-03-26T00:36:31.250Z,2.60
2023-03-26T00:38:59.111Z,2.60
2023-03-26T00:41:31.082Z,3.20
2023-03-26T00:43:59.939Z,3.00
2023-03-26T00:46:30.760Z,2.80
2023-03-26T00:49:00.088Z,3.10
2023-03-26T00:51:28.354Z,2.80
2023-03-26T00:53:56.950Z,2.70
2023-03-26T00:56:25.114Z,2.60
2023-03-26T00:58:52.934Z,2.70
2023-03-26T01:01:30.573Z,2.20
2023-03-26T01:04:19.491Z,2.40
2023-03-26T01:06:47.437Z,2.60
2023-03-26T01:09:18.972Z,2.40
2023-03-26T01:11:48.547Z,2.10
2023-03-26T01:14:23.818Z,1.80
2023-03-26T01:16:55.349Z,2.30
2023-03-26T01:19:45.225Z,2.30
2023-03-26T01:22:20.993Z,1.80
2023-03-26T01:24:54.192Z,1.70
2023-03-26T01:27:25.711Z,2.00
2023-03-26T01:29:56.472Z,1.90
2023-03-26T01:32:33.605Z,2.10
2023-03-26T01:35:20.673Z,1.90
2023-03-26T01:38:39.458Z,1.70
2023-03-26T01:41:14.170Z,2.30
2023-03-26T01:44:16.709Z,1.60
2023-03-26T01:46:44.759Z,2.00
2023-03-26T01:49:15.638Z,2.00
2023-03-26T01:51:43.591Z,2.00
2023-03-26T01:54:16.963Z,2.00
2023-03-26T01:57:11.560Z,1.90
2023-03-26T01:59:57.618Z,2.20
2023-03-26T02:02:55.040Z,2.20
2023-03-26T02:05:36.151Z,2.10
2023-03-26T02:08:35.559Z,1.70
2023-03-26T02:11:11.755Z,1.60
2023-03-26T02:13:42.570Z,1.60
2023-03-26T02:16:18.717Z,1.60
2023-03-26T02:18:51.529Z,1.40
2023-03-26T02:21:21.900Z,1.50
2023-03-26T02:23:57.868Z,1.70
2023-03-26T02:26:26.033Z,1.50
2023-03-26T02:28:58.606Z,1.40
2023-03-26T02:31:26.838Z,1.40
2023-03-26T02:33:55.692Z,1.40
2023-03-26T02:36:27.601Z,1.50
2023-03-26T02:38:58.138Z,1.30
2023-03-26T02:41:26.384Z,1.60
2023-03-26T02:44:05.869Z,1.50
2023-03-26T02:46:52.587Z,1.60
2023-03-26T02:49:40.699Z,1.40
2023-03-26T02:52:09.157Z,1.60
2023-03-26T02:54:37.214Z,1.50
2023-03-26T02:57:34.220Z,1.60
2023-03-26T03:00:10.076Z,1.50
2023-03-26T03:02:38.870Z,1.40
2023-03-26T03:05:26.767Z,1.30
2023-03-26T03:08:13.493Z,1.60
2023-03-26T03:10:57.162Z,1.20
2023-03-26T03:13:36.467Z,1.30
2023-03-26T03:16:05.848Z,1.50
2023-03-26T03:18:33.767Z,1.40
2023-03-26T03:21:03.429Z,1.40
2023-03-26T03:23:31.601Z,1.80
2023-03-26T03:26:14.389Z,1.30
2023-03-26T03:28:45.145Z,1.30
2023-03-26T03:31:16.777Z,1.50
2023-03-26T03:33:46.553Z,1.10
2023-03-26T03:36:22.292Z,1.70
2023-03-26T03:39:02.730Z,1.30
2023-03-26T03:41:32.745Z,1.30
2023-03-26T03:44:02.479Z,1.20
2023-03-26T03:46:32.852Z,1.30
2023-03-26T03:49:01.256Z,1.50
2023-03-26T03:51:36.043Z,1.70
2023-03-26T03:54:28.343Z,1.60
2023-03-26T03:57:26.164Z,1.40
2023-03-26T04:00:00.438Z,1.40
2023-03-26T04:02:35.075Z,1.30
2023-03-26T04:05:06.167Z,1.40
2023-03-26T04:07:34.253Z,1.30
2023-03-26T04:10:09.433Z,1.40
2023-03-26T04:12:56.296Z,1.20
2023-03-26T04:15:38.634Z,1.40
2023-03-26T04:18:10.500Z,1.40
2023-03-26T04:20:46.840Z,1.50
2023-03-26T04:23:21.489Z,1.50
2023-03-26T04:25:54.000Z,1.30
2023-03-26T04:28:35.751Z,1.40
2023-03-26T04:31:24.685Z,1.50
2023-03-26T04:33:56.515Z,1.60
2023-03-26T04:36:28.752Z,1.40
2023-03-26T04:38:58.562Z,1.60
2023-03-26T04:41:44.064Z,1.50
2023-03-26T04:44:22.512Z,1.50
2023-03-26T04:47:03.686Z,1.50
2023-03-26T04:49:36.368Z,1.30
2023-03-26T04:52:04.573Z,1.60
2023-03-26T04:55:17.071Z,1.30
2023-03-26T04:57:57.850Z,1.70
2023-03-26T05:01:10.556Z,1.40
2023-03-26T05:03:41.518Z,1.60
2023-03-26T05:06:11.888Z,1.80
2023-03-26T05:08:39.743Z,1.60
2023-03-26T05:11:11.718Z,1.20
2023-03-26T05:13:42.975Z,1.90
2023-03-26T05:16:13.061Z,1.50
2023-03-26T05:18:46.874Z,1.80
2023-03-26T05:21:15.801Z,1.50
2023-03-26T05:23:43.950Z,1.70
2023-03-26T05:26:19.006Z,1.90
2023-03-26T05:28:46.931Z,2.50
2023-03-26T05:31:48.732Z,1.60
2023-03-26T05:34:16.907Z,1.70
2023-03-26T05:36:44.956Z,2.00
2023-03-26T05:39:41.434Z,1.50
2023-03-26T05:42:27.989Z,1.60
2023-03-26T05:45:11.205Z,1.60
2023-03-26T05:47:39.218Z,2.10
2023-03-26T05:50:08.280Z,1.60
2023-03-26T05:52:37.986Z,1.50
2023-03-26T05:55:24.539Z,1.50
2023-03-26T05:58:11.420Z,1.40
2023-03-26T06:01:08.737Z,1.70
2023-03-26T06:03:56.829Z,1.50
2023-03-26T06:06:28.576Z,1.80
2023-03-26T06:09:01.832Z,1.40
2023-03-26T06:11:32.095Z,1.40
2023-03-26T06:14:01.191Z,1.40
2023-03-26T06:16:35.464Z,1.60
2023-03-26T06:19:18.426Z,1.50
2023-03-26T06:21:49.400Z,1.80
2023-03-26T06:24:21.985Z,1.40
2023-03-26T06:27:08.635Z,1.50
2023-03-26T06:30:15.306Z,1.30
2023-03-26T06:32:53.597Z,1.30
2023-03-26T06:35:26.024Z,1.30
2023-03-26T06:37:54.310Z,1.40
2023-03-26T06:40:22.496Z,1.50
2023-03-26T06:43:13.690Z,1.10
2023-03-26T06:45:55.380Z,1.30
2023-03-26T06:48:46.672Z,1.20
2023-03-26T06:51:33.291Z,1.10
2023-03-26T06:54:20.532Z,1.30
2023-03-26T06:56:57.459Z,0.90
2023-03-26T06:59:44.100Z,0.90
2023-03-26T07:02:30.717Z,1.20
2023-03-26T07:05:17.468Z,1.00
2023-03-26T07:08:04.948Z,0.80
2023-03-26T07:10:56.209Z,0.90
2023-03-26T07:13:46.166Z,0.90
2023-03-26T07:16:47.028Z,0.80
2023-03-26T07:19:26.229Z,0.60
2023-03-26T07:21:54.701Z,1.10
2023-03-26T07:24:44.125Z,1.30
2023-03-26T07:27:44.722Z,0.70
2023-03-26T07:30:28.901Z,0.90
2023-03-26T07:33:31.928Z,0.70
2023-03-26T07:36:45.457Z,0.70
2023-03-26T07:39:42.372Z,0.70
2023-03-26T07:42:43.571Z,0.50
2023-03-26T07:45:44.408Z,1.10
2023-03-26T07:48:20.240Z,1.00
2023-03-26T07:51:07.675Z,1.00
2023-03-26T07:54:05.901Z,0.70
2023-03-26T07:56:58.033Z,0.80
2023-03-26T08:00:12.389Z,0.60
2023-03-26T08:03:04.900Z,0.90
2023-03-26T08:05:58.349Z,0.60
2023-03-26T08:09:38.816Z,0.70
2023-03-26T08:13:22.364Z,0.90
2023-03-26T08:16:08.249Z,0.70
2023-03-26T08:19:00.589Z,0.90
2023-03-26T08:21:39.723Z,0.80
2023-03-26T08:24:22.958Z,1.90
2023-03-26T08:27:10.102Z,2.20
2023-03-26T08:29:50.004Z,1.90
2023-03-26T08:32:19.334Z,1.70
2023-03-26T08:34:47.293Z,1.40
2023-03-26T08:37:15.612Z,1.20
2023-03-26T08:39:43.751Z,1.10
2023-03-26T08:42:39.565Z,0.80
2023-03-26T08:45:51.463Z,1.40
2023-03-26T08:48:22.496Z,1.00
2023-03-26T08:51:17.449Z,1.20
2023-03-26T08:54:10.139Z,1.20
2023-03-26T08:57:12.428Z,1.00
2023-03-26T08:59:59.714Z,1.30
2023-03-26T09:02:57.533Z,1.40
2023-03-26T09:06:10.133Z,1.00
2023-03-26T09:09:09.300Z,1.10
2023-03-26T09:12:18.326Z,1.00
2023-03-26T09:15:17.760Z,1.40
2023-03-26T09:18:10.127Z,1.30
2023-03-26T09:21:11.956Z,1.90
2023-03-26T09:24:27.818Z,2.00
2023-03-26T09:27:39.565Z,1.80
2023-03-26T09:30:26.790Z,1.20
2023-03-26T09:33:43.266Z,1.00
2023-03-26T09:36:33.549Z,0.90
2023-03-26T09:39:23.707Z,0.90
2023-03-26T09:42:15.642Z,1.30
2023-03-26T09:44:58.707Z,1.60
2023-03-26T09:48:28.069Z,1.10
2023-03-26T09:51:21.764Z,0.70
2023-03-26T09:54:18.232Z,0.60
2023-03-26T09:57:11.540Z,0.90
2023-03-26T10:00:13.596Z,1.20
2023-03-26T10:03:08.897Z,1.30
2023-03-26T10:05:55.470Z,1.70
2023-03-26T10:08:25.072Z,1.40
2023-03-26T10:11:22.957Z,1.30
2023-03-26T10:14:26.144Z,1.40
2023-03-26T10:17:35.810Z,1.00
2023-03-26T10:20:19.765Z,0.60
2023-03-26T10:23:14.087Z,0.70
2023-03-26T10:26:18.951Z,0.70
2023-03-26T10:29:08.306Z,0.70
2023-03-26T10:31:43.391Z,1.00
2023-03-26T10:34:28.118Z,1.20
2023-03-26T10:37:16.306Z,1.40
2023-03-26T10:40:02.066Z,1.30
2023-03-26T10:43:26.381Z,1.10
2023-03-26T10:46:31.926Z,0.90
2023-03-26T10:49:50.042Z,1.10
2023-03-26T10:52:23.605Z,1.40
2023-03-26T10:55:13.504Z,1.70
2023-03-26T10:57:58.259Z,1.30
2023-03-26T11:00:29.003Z,1.30
2023-03-26T11:03:24.475Z,1.00
2023-03-26T11:06:11.715Z,0.80
2023-03-26T11:08:49.813Z,0.60
2023-03-26T11:11:31.840Z,0.90
2023-03-26T11:14:02.423Z,1.50
2023-03-26T11:17:39.791Z,0.70
2023-03-26T11:20:31.278Z,0.40
2023-03-26T11:23:36.635Z,0.60
2023-03-26T11:26:14.236Z,0.80
2023-03-26T11:29:03.425Z,0.60
2023-03-26T11:32:11.793Z,0.60
2023-03-26T11:34:50.960Z,0.40
2023-03-26T11:37:27.516Z,0.60
2023-03-26T11:39:56.944Z,0.50
2023-03-26T11:42:25.573Z,0.80
2023-03-26T11:44:59.879Z,0.60
2023-03-26T11:47:59.732Z,0.70
2023-03-26T11:50:29.685Z,1.00
2023-03-26T11:52:59.349Z,1.10
2023-03-26T11:55:27.702Z,1.50
2023-03-26T11:57:57.463Z,1.60
2023-03-26T12:00:27.764Z,1.70
2023-03-26T12:02:58.159Z,1.50
2023-03-26T12:05:31.642Z,2.10
2023-03-26T12:08:04.425Z,1.80
2023-03-26T12:10:38.076Z,2.00
2023-03-26T12:13:30.484Z,2.10
2023-03-26T12:16:08.935Z,2.40
2023-03-26T12:18:37.237Z,1.90
2023-03-26T12:21:18.036Z,1.70
2023-03-26T12:24:04.650Z,1.80
2023-03-26T12:26:42.810Z,1.60
2023-03-26T12:29:13.548Z,1.80
2023-03-26T12:31:53.292Z,1.80
2023-03-26T12:34:43.037Z,1.50
2023-03-26T12:37:37.548Z,1.80
2023-03-26T12:40:35.908Z,1.70
2023-03-26T12:44:56.033Z,1.50
2023-03-26T12:47:45.834Z,1.80
2023-03-26T12:48:48.038Z,1.70
2023-03-26T12:51:38.228Z,2.10
2023-03-26T12:54:17.458Z,2.30
2023-03-26T12:57:11.737Z,1.90
2023-03-26T12:59:56.612Z,2.00
2023-03-26T13:03:01.626Z,2.30
2023-03-26T13:05:57.714Z,1.50
2023-03-26T13:09:05.084Z,1.40
2023-03-26T13:11:51.403Z,1.40
2023-03-26T13:14:34.794Z,1.40
2023-03-26T13:17:11.659Z,1.20
2023-03-26T13:19:48.151Z,1.00
2023-03-26T13:22:51.580Z,2.40
2023-03-26T13:25:34.882Z,2.40
2023-03-26T13:28:30.941Z,2.00
2023-03-26T13:31:23.858Z,1.70
2023-03-26T13:34:19.296Z,1.00
2023-03-26T13:37:00.605Z,0.90
2023-03-26T13:39:50.156Z,0.80
2023-03-26T13:42:42.930Z,0.90
2023-03-26T13:45:24.770Z,0.90
2023-03-26T13:47:55.509Z,1.20
2023-03-26T13:50:34.068Z,1.00
2023-03-26T13:53:24.886Z,0.80
2023-03-26T13:55:59.287Z,0.70
2023-03-26T13:58:42.541Z,0.80
2023-03-26T14:01:17.304Z,0.60
2023-03-26T14:04:08.309Z,1.30
2023-03-26T14:06:54.173Z,1.00
2023-03-26T14:09:30.671Z,0.90
2023-03-26T14:12:35.318Z,0.80
2023-03-26T14:15:10.885Z,0.70
2023-03-26T14:17:48.783Z,0.60
2023-03-26T14:20:22.441Z,1.10
2023-03-26T14:23:25.742Z,0.60
2023-03-26T14:26:14.804Z,1.00
2023-03-26T14:29:04.590Z,1.00
2023-03-26T14:31:49.714Z,1.20
2023-03-26T14:34:42.832Z,0.90
2023-03-26T14:37:53.793Z,1.40
2023-03-26T14:40:33.855Z,1.60
2023-03-26T14:43:18.526Z,1.40
2023-03-26T14:46:27.585Z,1.30
2023-03-26T14:49:26.633Z,1.70
2023-03-26T14:52:27.586Z,2.00
2023-03-26T14:54:58.025Z,2.00
2023-03-26T14:58:16.025Z,1.90
2023-03-26T15:01:13.338Z,2.00
2023-03-26T15:04:25.115Z,2.00
2023-03-26T15:07:27.722Z,2.40
2023-03-26T15:10:25.618Z,1.70
2023-03-26T15:13:36.721Z,1.80
2023-03-26T15:16:28.123Z,2.20
2023-03-26T15:19:40.972Z,2.70
2023-03-26T15:22:28.026Z,1.80
2023-03-26T15:25:43.711Z,2.10
2023-03-26T15:28:46.566Z,1.50
2023-03-26T15:31:40.950Z,1.20
2023-03-26T15:34:39.967Z,1.60
2023-03-26T15:37:50.358Z,1.40
2023-03-26T15:40:36.723Z,2.00
2023-03-26T15:43:20.200Z,1.20
2023-03-26T15:45:53.934Z,1.20
2023-03-26T15:48:36.678Z,1.20
2023-03-26T15:51:46.888Z,1.30
2023-03-26T15:54:22.871Z,1.30
2023-03-26T15:57:44.324Z,0.90
2023-03-26T16:00:19.241Z,1.10
2023-03-26T16:03:11.834Z,1.60
2023-03-26T16:06:31.147Z,1.60
2023-03-26T16:09:45.733Z,1.60
2023-03-26T16:12:16.761Z,1.70
2023-03-26T16:15:05.803Z,2.00
2023-03-26T16:18:25.575Z,2.20
2023-03-26T16:21:38.931Z,2.50
2023-03-26T16:24:07.440Z,2.20
2023-03-26T16:26:44.281Z,2.30
2023-03-26T16:29:26.817Z,2.20
2023-03-26T16:32:18.989Z,2.60
2023-03-26T16:35:02.116Z,2.70
2023-03-26T16:37:39.910Z,2.60
2023-03-26T16:40:17.199Z,3.10
2023-03-26T16:42:51.798Z,3.60
2023-03-26T16:45:57.389Z,3.30
2023-03-26T16:49:10.680Z,3.00
2023-03-26T16:52:20.593Z,2.80
2023-03-26T16:55:11.555Z,3.00
2023-03-26T16:57:53.147Z,2.90
2023-03-26T17:00:49.649Z,3.30
2023-03-26T17:03:38.857Z,3.30
2023-03-26T17:06:20.981Z,3.50
2023-03-26T17:09:23.614Z,3.20
2023-03-26T17:12:56.296Z,3.20
2023-03-26T17:15:53.540Z,2.50
2023-03-26T17:18:43.630Z,2.40
2023-03-26T17:21:46.744Z,2.00
2023-03-26T17:24:40.736Z,2.10
2023-03-26T17:27:58.760Z,2.70
2023-03-26T17:30:54.851Z,2.80
2023-03-26T17:33:31.272Z,3.00
2023-03-26T17:36:41.222Z,3.00
2023-03-26T17:39:21.583Z,2.90
2023-03-26T17:41:54.440Z,4.20
2023-03-26T17:44:44.168Z,4.80
2023-03-26T17:47:22.668Z,6.40
2023-03-26T17:49:55.510Z,8.60
2023-03-26T17:52:51.939Z,8.10
2023-03-26T17:55:22.216Z,6.10
2023-03-26T17:57:53.688Z,5.30
2023-03-26T18:00:25.309Z,5.60
2023-03-26T18:02:57.313Z,6.50
2023-03-26T18:05:29.160Z,6.10
2023-03-26T18:08:37.219Z,4.40
2023-03-26T18:11:38.168Z,5.10
2023-03-26T18:14:47.652Z,7.20
2023-03-26T18:17:15.445Z,7.50
2023-03-26T18:19:52.483Z,8.90
2023-03-26T18:22:24.778Z,11.50
2023-03-26T18:24:56.100Z,13.60
2023-03-26T18:27:24.033Z,10.40
2023-03-26T18:30:01.656Z,8.40
2023-03-26T18:32:33.669Z,6.20
2023-03-26T18:35:18.783Z,6.80
2023-03-26T18:37:49.247Z,8.10
2023-03-26T18:40:21.501Z,10.10
2023-03-26T18:42:55.342Z,11.20
2023-03-26T18:45:23.404Z,14.60
2023-03-26T18:47:57.316Z,19.50
2023-03-26T18:50:37.232Z,25.10
2023-03-26T18:53:21.061Z,27.70
2023-03-26T18:55:50.652Z,23.70
2023-03-26T18:58:34.440Z,19.50
2023-03-26T19:01:04.969Z,17.90
2023-03-26T19:03:35.628Z,18.00
2023-03-26T19:06:04.759Z,18.90
2023-03-26T19:08:35.461Z,17.40
2023-03-26T19:11:04.942Z,15.10
2023-03-26T19:13:33.735Z,14.40
2023-03-26T19:16:06.129Z,20.80
2023-03-26T19:18:36.279Z,24.70
2023-03-26T19:21:04.648Z,22.40
2023-03-26T19:23:36.297Z,25.80
2023-03-26T19:26:06.734Z,28.10
2023-03-26T19:28:49.310Z,30.20
2023-03-26T19:31:22.529Z,27.80
2023-03-26T19:33:59.701Z,26.70
2023-03-26T19:36:31.755Z,27.70
2023-03-26T19:38:59.646Z,28.20
2023-03-26T19:41:36.636Z,29.50
2023-03-26T19:44:28.651Z,43.90
2023-03-26T19:47:31.843Z,49.30
2023-03-26T19:50:23.431Z,45.30
2023-03-26T19:53:17.722Z,41.80
2023-03-26T19:55:56.568Z,41.50
2023-03-26T19:58:27.482Z,41.30
2023-03-26T20:00:58.860Z,34.90
2023-03-26T20:03:30.595Z,34.20
2023-03-26T20:05:59.644Z,31.60
2023-03-26T20:08:27.984Z,33.70
2023-03-26T20:10:56.682Z,31.90
2023-03-26T20:13:24.691Z,31.40
2023-03-26T20:16:06.027Z,30.30
2023-03-26T20:18:35.143Z,30.80
2023-03-26T20:21:10.863Z,26.80
2023-03-26T20:23:40.366Z,26.40
2023-03-26T20:26:15.889Z,26.50
2023-03-26T20:28:48.374Z,25.10
2023-03-26T20:31:25.363Z,25.30
2023-03-26T20:33:53.892Z,25.30
2023-03-26T20:36:33.648Z,24.00
2023-03-26T20:39:07.821Z,25.10
2023-03-26T20:41:38.224Z,24.00
2023-03-26T20:44:13.721Z,22.30
2023-03-26T20:46:43.423Z,22.50
2023-03-26T20:49:11.952Z,20.60
2023-03-26T20:51:41.992Z,19.80
2023-03-26T20:54:24.344Z,21.30
2023-03-26T20:56:53.517Z,20.70
2023-03-26T20:59:28.840Z,23.30
2023-03-26T21:01:57.812Z,23.90
2023-03-26T21:04:26.741Z,22.10
2023-03-26T21:07:00.239Z,22.30
2023-03-26T21:09:35.778Z,22.80
2023-03-26T21:12:28.137Z,23.40
2023-03-26T21:14:57.272Z,22.10
2023-03-26T21:17:26.334Z,25.10
2023-03-26T21:19:55.027Z,28.40
2023-03-26T21:22:49.532Z,31.30
2023-03-26T21:25:53.286Z,27.30
2023-03-26T21:28:42.505Z,24.50
2023-03-26T21:31:20.484Z,23.70
2023-03-26T21:33:49.565Z,24.70
2023-03-26T21:36:19.907Z,24.10
2023-03-26T21:38:50.613Z,25.20
2023-03-26T21:41:24.455Z,27.80
2023-03-26T21:43:52.328Z,27.80
2023-03-26T21:46:20.796Z,25.40
2023-03-26T21:48:49.133Z,26.30
2023-03-26T21:51:17.821Z,25.00
2023-03-26T21:53:46.600Z,22.70
2023-03-26T21:56:39.584Z,20.00
2023-03-26T21:59:36.758Z,22.00
2023-03-26T22:02:24.211Z,20.90
2023-03-26T22:04:57.260Z,19.60
2023-03-26T22:07:53.405Z,20.30
2023-03-26T22:10:21.620Z,23.90
2023-03-26T22:12:49.613Z,26.80
2023-03-26T22:15:18.579Z,24.70
2023-03-26T22:17:54.154Z,25.50
2023-03-26T22:20:25.212Z,28.00
2023-03-26T22:22:55.358Z,26.20
2023-03-26T22:25:23.730Z,24.40
2023-03-26T22:27:51.747Z,24.00
2023-03-26T22:30:23.028Z,24.40
2023-03-26T22:32:51.929Z,24.10
2023-03-26T22:35:19.893Z,22.70
2023-03-26T22:37:48.498Z,24.60
2023-03-26T22:40:18.006Z,23.80
2023-03-26T22:42:46.170Z,23.60
2023-03-26T22:45:14.121Z,21.60
2023-03-26T22:47:42.210Z,21.30
2023-03-26T22:50:10.875Z,20.30
2023-03-26T22:52:40.794Z,20.50
2023-03-26T22:55:11.049Z,17.50
2023-03-26T22:57:39.431Z,16.80
2023-03-26T23:00:19.726Z,14.60
2023-03-26T23:02:47.616Z,17.30
2023-03-26T23:05:18.778Z,18.20
2023-03-26T23:07:46.653Z,17.30
2023-03-26T23:10:14.541Z,17.10
2023-03-26T23:12:42.537Z,16.30
2023-03-26T23:15:11.288Z,15.70
2023-03-26T23:17:39.538Z,16.30
2023-03-26T23:20:15.379Z,15.80
2023-03-26T23:22:43.984Z,16.20
2023-03-26T23:25:11.914Z,16.70
2023-03-26T23:27:41.597Z,16.60
2023-03-26T23:30:11.046Z,17.30
2023-03-26T23:32:39.044Z,18.20
2023-03-26T23:35:07.534Z,17.80
2023-03-26T23:37:35.577Z,16.70
2023-03-26T23:40:10.263Z,16.80
2023-03-26T23:42:38.401Z,18.10
2023-03-26T23:45:08.513Z,20.70
2023-03-26T23:47:37.359Z,21.00
2023-03-26T23:50:06.382Z,21.60
2023-03-26T23:52:34.118Z,23.10
2023-03-26T23:55:02.145Z,18.80
2023-03-26T23:57:30.655Z,20.10
2023-03-26T23:59:58.487Z,17.50
